Time;durP1;ratioP1;P1;durP2;ratioP2;P2;SDS_P1;SDS_P2;PMS_P1;PMS_P2;Temp;Humidity;BMP_temperature;BMP_pressure;BME280_temperature;BME280_humidity;BME280_pressure;Samples;Min_cycle;Max_cycle;Signal;HPM_P1;HPM_P2
2023/03/12 00:01:36;;;;;;;0.70;0.57;;;;;;;;;;4979698;28;20043;-85
2023/03/12 00:04:03;;;;;;;1.13;0.70;;;;;;;;;;4971042;28;20031;-84
2023/03/12 00:06:29;;;;;;;0.73;0.63;;;;;;;;;;4980662;28;20053;-84
2023/03/12 00:08:55;;;;;;;5.00;0.80;;;;;;;;;;4975168;28;20057;-86
2023/03/12 00:11:21;;;;;;;0.68;0.68;;;;;;;;;;4973622;28;20101;-84
2023/03/12 00:13:51;;;;;;;0.50;0.50;;;;;;;;;;4958121;28;20401;-84
2023/03/12 00:16:17;;;;;;;1.92;0.75;;;;;;;;;;4972404;28;20085;-84
2023/03/12 00:18:43;;;;;;;0.40;0.40;;;;;;;;;;4969736;28;20035;-84
2023/03/12 00:21:10;;;;;;;0.45;0.45;;;;;;;;;;4971096;28;20039;-85
2023/03/12 00:23:36;;;;;;;2.30;0.47;;;;;;;;;;4957206;28;20077;-84
2023/03/12 00:26:10;;;;;;;1.80;0.80;;;;;;;;;;4971186;28;20027;-85
2023/03/12 00:28:36;;;;;;;1.58;0.75;;;;;;;;;;4971855;28;20034;-86
2023/03/12 00:31:03;;;;;;;7.30;0.90;;;;;;;;;;4970478;28;20039;-85
2023/03/12 00:33:29;;;;;;;1.17;0.68;;;;;;;;;;4970512;28;20043;-85
2023/03/12 00:35:56;;;;;;;1.85;0.55;;;;;;;;;;4970609;28;20465;-85
2023/03/12 00:38:22;;;;;;;0.75;0.75;;;;;;;;;;4980816;28;20046;-85
2023/03/12 00:40:48;;;;;;;1.50;0.57;;;;;;;;;;4968543;28;20681;-84
2023/03/12 00:43:14;;;;;;;0.73;0.60;;;;;;;;;;4969251;28;20023;-85
2023/03/12 00:45:40;;;;;;;0.60;0.60;;;;;;;;;;4970500;28;20026;-84
2023/03/12 00:48:06;;;;;;;0.77;0.70;;;;;;;;;;4973478;28;20022;-84
2023/03/12 00:50:32;;;;;;;0.95;0.52;;;;;;;;;;4977464;28;20666;-87
2023/03/12 00:52:58;;;;;;;0.60;0.60;;;;;;;;;;4975697;28;20031;-84
2023/03/12 00:55:24;;;;;;;4.63;0.60;;;;;;;;;;4970420;28;20033;-84
2023/03/12 00:57:50;;;;;;;0.60;0.60;;;;;;;;;;4972249;28;20038;-85
2023/03/12 01:00:16;;;;;;;1.27;0.70;;;;;;;;;;4969795;28;20042;-84
2023/03/12 01:02:42;;;;;;;0.95;0.50;;;;;;;;;;4970149;28;20031;-85
2023/03/12 01:05:08;;;;;;;1.08;0.60;;;;;;;;;;4969784;28;20029;-85
2023/03/12 01:07:35;;;;;;;1.27;0.68;;;;;;;;;;4970445;28;20082;-85
2023/03/12 01:10:01;;;;;;;0.60;0.50;;;;;;;;;;4969914;28;20027;-85
2023/03/12 01:12:27;;;;;;;0.50;0.50;;;;;;;;;;4970245;28;20409;-85
2023/03/12 01:14:53;;;;;;;0.85;0.50;;;;;;;;;;4970349;28;20034;-84
2023/03/12 01:17:19;;;;;;;1.15;0.80;;;;;;;;;;4969571;28;20034;-86
2023/03/12 01:19:45;;;;;;;1.20;0.60;;;;;;;;;;4969808;28;20042;-87
2023/03/12 01:22:11;;;;;;;2.63;0.82;;;;;;;;;;4969997;28;20030;-86
2023/03/12 01:24:36;;;;;;;0.40;0.40;;;;;;;;;;4968883;28;20038;-84
2023/03/12 01:27:03;;;;;;;1.27;0.68;;;;;;;;;;4970995;28;20031;-85
2023/03/12 01:29:28;;;;;;;2.65;0.47;;;;;;;;;;4972422;28;20034;-84
2023/03/12 01:32:04;;;;;;;1.10;0.50;;;;;;;;;;4970033;28;20074;-85
2023/03/12 01:34:32;;;;;;;0.43;0.40;;;;;;;;;;4969418;28;20043;-84
2023/03/12 01:36:58;;;;;;;0.63;0.50;;;;;;;;;;4970639;28;20037;-85
2023/03/12 01:39:24;;;;;;;0.80;0.43;;;;;;;;;;4971304;28;20030;-86
2023/03/12 01:41:50;;;;;;;0.57;0.47;;;;;;;;;;4974312;28;20054;-88
2023/03/12 01:44:16;;;;;;;0.47;0.38;;;;;;;;;;4970200;28;20031;-85
2023/03/12 01:46:44;;;;;;;4.38;0.82;;;;;;;;;;4970065;28;20145;-85
2023/03/12 01:49:19;;;;;;;2.50;0.47;;;;;;;;;;4974919;28;20035;-84
2023/03/12 01:52:03;;;;;;;0.43;0.43;;;;;;;;;;4969206;28;20065;-85
2023/03/12 01:54:39;;;;;;;0.45;0.45;;;;;;;;;;4969082;28;20437;-85
2023/03/12 01:57:06;;;;;;;0.50;0.47;;;;;;;;;;4972441;28;20386;-85
2023/03/12 01:59:38;;;;;;;1.98;0.50;;;;;;;;;;4974812;28;20136;-86
2023/03/12 02:02:05;;;;;;;0.47;0.38;;;;;;;;;;4968686;28;20034;-86
2023/03/12 02:04:32;;;;;;;0.52;0.45;;;;;;;;;;4969192;28;20543;-87
2023/03/12 02:07:02;;;;;;;0.93;0.60;;;;;;;;;;4969025;28;20081;-85
2023/03/12 02:09:29;;;;;;;1.00;0.90;;;;;;;;;;4978020;28;20027;-83
2023/03/12 02:11:55;;;;;;;1.42;0.38;;;;;;;;;;4969610;28;20038;-85
2023/03/12 02:14:21;;;;;;;0.47;0.47;;;;;;;;;;4968453;28;20031;-85
2023/03/12 02:16:48;;;;;;;0.98;0.80;;;;;;;;;;4973836;28;20051;-84
2023/03/12 02:19:21;;;;;;;0.85;0.47;;;;;;;;;;4975688;28;20066;-85
2023/03/12 02:21:47;;;;;;;0.85;0.60;;;;;;;;;;4968761;28;20074;-85
2023/03/12 02:24:13;;;;;;;2.67;0.40;;;;;;;;;;4968278;28;20586;-85
2023/03/12 02:26:40;;;;;;;0.52;0.52;;;;;;;;;;4967997;28;20027;-85
2023/03/12 02:29:06;;;;;;;0.63;0.50;;;;;;;;;;4968859;28;20019;-85
2023/03/12 02:31:35;;;;;;;0.43;0.40;;;;;;;;;;4976247;28;20068;-84
2023/03/12 02:34:02;;;;;;;0.82;0.80;;;;;;;;;;4973366;28;20026;-85
2023/03/12 02:36:28;;;;;;;0.50;0.45;;;;;;;;;;4967451;28;20533;-87
2023/03/12 02:38:54;;;;;;;0.40;0.40;;;;;;;;;;4968648;28;20039;-88
2023/03/12 02:41:22;;;;;;;0.65;0.50;;;;;;;;;;4969674;28;20051;-88
2023/03/12 02:43:55;;;;;;;1.02;0.55;;;;;;;;;;4973733;28;20318;-88
2023/03/12 02:46:21;;;;;;;0.43;0.43;;;;;;;;;;4969071;28;20069;-90
2023/03/12 02:48:47;;;;;;;1.23;0.68;;;;;;;;;;4974150;28;20034;-86
2023/03/12 02:51:13;;;;;;;1.15;0.65;;;;;;;;;;4967919;28;20041;-85
2023/03/12 02:53:39;;;;;;;0.75;0.65;;;;;;;;;;4968541;28;20035;-85
2023/03/12 02:56:05;;;;;;;0.40;0.40;;;;;;;;;;4972844;28;20437;-86
2023/03/12 02:58:31;;;;;;;0.63;0.40;;;;;;;;;;4972191;28;20030;-86
2023/03/12 03:00:57;;;;;;;0.52;0.40;;;;;;;;;;4969039;28;20586;-85
2023/03/12 03:03:23;;;;;;;1.10;0.60;;;;;;;;;;4967676;28;20046;-86
2023/03/12 03:05:49;;;;;;;0.55;0.50;;;;;;;;;;4968907;28;20136;-87
2023/03/12 03:08:15;;;;;;;0.63;0.55;;;;;;;;;;4966646;28;20042;-88
2023/03/12 03:10:41;;;;;;;0.98;0.73;;;;;;;;;;4968621;28;20466;-87
2023/03/12 03:13:07;;;;;;;0.50;0.50;;;;;;;;;;4965657;28;20121;-86
2023/03/12 03:15:33;;;;;;;0.50;0.50;;;;;;;;;;4968737;28;20031;-87
2023/03/12 03:18:02;;;;;;;0.88;0.57;;;;;;;;;;4968593;28;20046;-86
2023/03/12 03:20:28;;;;;;;0.95;0.65;;;;;;;;;;4969320;28;20093;-86
2023/03/12 03:22:54;;;;;;;0.73;0.50;;;;;;;;;;4967047;28;20393;-87
2023/03/12 03:25:22;;;;;;;1.05;0.50;;;;;;;;;;4967049;28;20043;-86
2023/03/12 03:27:48;;;;;;;0.60;0.43;;;;;;;;;;4972969;28;20065;-86
2023/03/12 03:30:15;;;;;;;0.40;0.40;;;;;;;;;;4968618;28;20038;-87
2023/03/12 03:32:41;;;;;;;0.22;0.22;;;;;;;;;;4968415;28;20470;-85
2023/03/12 03:35:07;;;;;;;0.80;0.40;;;;;;;;;;4968470;28;20023;-85
2023/03/12 03:37:34;;;;;;;0.93;0.55;;;;;;;;;;4971098;28;20058;-85
2023/03/12 03:40:00;;;;;;;0.40;0.30;;;;;;;;;;4969160;28;20077;-86
2023/03/12 03:42:26;;;;;;;0.60;0.40;;;;;;;;;;4967773;28;20059;-85
2023/03/12 03:44:51;;;;;;;0.77;0.47;;;;;;;;;;4968403;28;20037;-84
2023/03/12 03:47:18;;;;;;;0.50;0.45;;;;;;;;;;4968527;28;20046;-85
2023/03/12 03:49:44;;;;;;;0.50;0.50;;;;;;;;;;4967726;28;20019;-85
2023/03/12 03:52:10;;;;;;;0.45;0.45;;;;;;;;;;4971632;28;20509;-87
2023/03/12 03:54:36;;;;;;;0.90;0.50;;;;;;;;;;4969565;28;20030;-88
2023/03/12 03:57:02;;;;;;;0.50;0.50;;;;;;;;;;4972474;28;20030;-88
2023/03/12 03:59:28;;;;;;;0.60;0.60;;;;;;;;;;4974620;28;20440;-85
2023/03/12 04:01:54;;;;;;;0.22;0.17;;;;;;;;;;4971765;28;20027;-86
2023/03/12 04:04:20;;;;;;;1.67;0.40;;;;;;;;;;4971458;28;20504;-86
2023/03/12 04:06:46;;;;;;;4.28;0.52;;;;;;;;;;4971648;28;20030;-85
2023/03/12 04:09:12;;;;;;;0.40;0.40;;;;;;;;;;4973291;28;20054;-85
2023/03/12 04:11:38;;;;;;;0.70;0.60;;;;;;;;;;4978933;28;20030;-85
2023/03/12 04:14:04;;;;;;;3.08;0.43;;;;;;;;;;4970679;28;20030;-85
2023/03/12 04:16:30;;;;;;;0.40;0.40;;;;;;;;;;4971026;28;20039;-85
2023/03/12 04:18:56;;;;;;;0.82;0.50;;;;;;;;;;4969546;28;20030;-87
2023/03/12 04:21:22;;;;;;;0.43;0.43;;;;;;;;;;4972233;28;20031;-88
2023/03/12 04:23:48;;;;;;;0.65;0.60;;;;;;;;;;4971197;28;20551;-88
2023/03/12 04:26:14;;;;;;;1.42;0.70;;;;;;;;;;4970042;28;20027;-85
2023/03/12 04:28:40;;;;;;;0.43;0.43;;;;;;;;;;4974622;28;20708;-85
2023/03/12 04:31:07;;;;;;;0.40;0.40;;;;;;;;;;4971725;28;20027;-86
2023/03/12 04:33:34;;;;;;;2.15;0.55;;;;;;;;;;4970816;28;20118;-87
2023/03/12 04:36:00;;;;;;;0.75;0.40;;;;;;;;;;4969430;28;20056;-86
2023/03/12 04:38:26;;;;;;;0.90;0.82;;;;;;;;;;4973814;28;20673;-86
2023/03/12 04:41:03;;;;;;;0.73;0.60;;;;;;;;;;4969986;28;20047;-85
2023/03/12 04:43:29;;;;;;;0.63;0.60;;;;;;;;;;4971395;28;20430;-85
2023/03/12 04:45:56;;;;;;;0.52;0.52;;;;;;;;;;4969037;28;20035;-85
2023/03/12 04:48:22;;;;;;;0.38;0.38;;;;;;;;;;4972642;28;20061;-85
2023/03/12 04:50:48;;;;;;;0.73;0.40;;;;;;;;;;4970865;28;20130;-85
2023/03/12 04:53:14;;;;;;;0.80;0.50;;;;;;;;;;4971148;28;20026;-86
2023/03/12 04:55:40;;;;;;;0.77;0.60;;;;;;;;;;4971631;28;20124;-86
2023/03/12 04:58:06;;;;;;;0.90;0.52;;;;;;;;;;4971121;28;20113;-85
2023/03/12 05:00:32;;;;;;;0.65;0.50;;;;;;;;;;4970234;28;20046;-85
2023/03/12 05:02:58;;;;;;;1.23;0.70;;;;;;;;;;4977282;28;20584;-89
2023/03/12 05:05:24;;;;;;;0.50;0.50;;;;;;;;;;4970597;28;20110;-86
2023/03/12 05:07:50;;;;;;;1.00;0.47;;;;;;;;;;4968721;28;20039;-86
2023/03/12 05:10:16;;;;;;;1.75;0.55;;;;;;;;;;4971101;28;20031;-85
2023/03/12 05:12:42;;;;;;;0.90;0.60;;;;;;;;;;4970597;28;20081;-88
2023/03/12 05:15:08;;;;;;;0.43;0.40;;;;;;;;;;4972124;28;20031;-88
2023/03/12 05:17:34;;;;;;;0.57;0.50;;;;;;;;;;4969449;28;20038;-88
2023/03/12 05:20:00;;;;;;;0.85;0.52;;;;;;;;;;4969874;28;20026;-87
2023/03/12 05:22:26;;;;;;;0.38;0.38;;;;;;;;;;4970053;28;20081;-86
2023/03/12 05:24:52;;;;;;;0.50;0.47;;;;;;;;;;4976635;28;20077;-85
2023/03/12 05:27:19;;;;;;;1.23;0.65;;;;;;;;;;4969599;28;20035;-84
2023/03/12 05:29:45;;;;;;;0.60;0.52;;;;;;;;;;4969421;28;20050;-87
2023/03/12 05:32:10;;;;;;;0.32;0.32;;;;;;;;;;4971055;28;20035;-88
2023/03/12 05:34:36;;;;;;;0.95;0.50;;;;;;;;;;4972080;28;20034;-88
2023/03/12 05:37:02;;;;;;;0.52;0.50;;;;;;;;;;4968346;28;20026;-85
2023/03/12 05:39:29;;;;;;;0.93;0.50;;;;;;;;;;4970182;28;20053;-85
2023/03/12 05:41:56;;;;;;;0.75;0.60;;;;;;;;;;4966766;28;20038;-85
2023/03/12 05:44:22;;;;;;;1.60;0.80;;;;;;;;;;4962008;28;20070;-85
2023/03/12 05:46:48;;;;;;;1.13;0.50;;;;;;;;;;4968858;28;20038;-85
2023/03/12 05:49:14;;;;;;;0.40;0.40;;;;;;;;;;4966247;28;20051;-85
2023/03/12 05:51:42;;;;;;;0.65;0.60;;;;;;;;;;4964184;28;21054;-85
2023/03/12 05:54:08;;;;;;;0.50;0.50;;;;;;;;;;4969367;28;20037;-85
2023/03/12 05:56:35;;;;;;;1.20;0.77;;;;;;;;;;4964164;28;20551;-85
2023/03/12 05:59:01;;;;;;;0.70;0.70;;;;;;;;;;4966764;28;20208;-85
2023/03/12 06:01:28;;;;;;;4.45;0.45;;;;;;;;;;4967671;28;20811;-85
2023/03/12 06:03:54;;;;;;;0.68;0.60;;;;;;;;;;4969058;28;20034;-85
2023/03/12 06:06:20;;;;;;;0.77;0.57;;;;;;;;;;4967413;28;20035;-85
2023/03/12 06:08:46;;;;;;;0.40;0.40;;;;;;;;;;4975977;28;20400;-85
2023/03/12 06:11:13;;;;;;;0.75;0.45;;;;;;;;;;4974064;28;20601;-85
2023/03/12 06:13:39;;;;;;;0.65;0.57;;;;;;;;;;4979561;28;20035;-85
2023/03/12 06:16:11;;;;;;;0.50;0.50;;;;;;;;;;4967694;28;20037;-85
2023/03/12 06:18:37;;;;;;;0.40;0.40;;;;;;;;;;4966589;28;20031;-84
2023/03/12 06:21:12;;;;;;;0.30;0.30;;;;;;;;;;4968584;28;20037;-85
2023/03/12 06:23:39;;;;;;;2.47;0.40;;;;;;;;;;4969206;28;20413;-85
2023/03/12 06:26:05;;;;;;;0.85;0.55;;;;;;;;;;4967367;28;20122;-84
2023/03/12 06:28:32;;;;;;;0.40;0.40;;;;;;;;;;4975862;28;20046;-84
2023/03/12 06:30:58;;;;;;;1.15;0.90;;;;;;;;;;4970831;28;20042;-86
2023/03/12 06:33:24;;;;;;;0.50;0.50;;;;;;;;;;4976416;28;20057;-86
2023/03/12 06:35:55;;;;;;;0.43;0.43;;;;;;;;;;4970651;28;20252;-87
2023/03/12 06:38:21;;;;;;;0.43;0.43;;;;;;;;;;4972329;28;20027;-88
2023/03/12 06:41:01;;;;;;;0.65;0.50;;;;;;;;;;4970907;28;20100;-86
2023/03/12 06:43:28;;;;;;;1.70;1.25;;;;;;;;;;4971715;28;20027;-86
2023/03/12 06:45:55;;;;;;;0.40;0.40;;;;;;;;;;4968701;28;20057;-86
2023/03/12 06:48:21;;;;;;;0.55;0.30;;;;;;;;;;4969014;28;20027;-86
2023/03/12 06:50:47;;;;;;;0.35;0.35;;;;;;;;;;4968275;28;20090;-87
2023/03/12 06:53:13;;;;;;;2.35;0.43;;;;;;;;;;4967794;28;20027;-86
2023/03/12 06:55:39;;;;;;;2.45;0.50;;;;;;;;;;4968085;28;20034;-87
2023/03/12 06:58:05;;;;;;;0.95;0.50;;;;;;;;;;4968829;28;20042;-85
2023/03/12 07:00:32;;;;;;;0.73;0.60;;;;;;;;;;4967696;28;20569;-87
2023/03/12 07:02:58;;;;;;;0.85;0.70;;;;;;;;;;4967970;28;20023;-85
2023/03/12 07:05:24;;;;;;;0.52;0.35;;;;;;;;;;4969128;28;20121;-85
2023/03/12 07:07:50;;;;;;;0.93;0.50;;;;;;;;;;4968150;28;20138;-84
2023/03/12 07:10:16;;;;;;;0.55;0.52;;;;;;;;;;4969047;28;20035;-85
2023/03/12 07:12:43;;;;;;;0.93;0.57;;;;;;;;;;4960520;28;20059;-84
2023/03/12 07:15:09;;;;;;;0.77;0.50;;;;;;;;;;4964134;28;20031;-85
2023/03/12 07:17:47;;;;;;;0.75;0.50;;;;;;;;;;4964051;28;20081;-87
2023/03/12 07:20:13;;;;;;;0.52;0.45;;;;;;;;;;4967244;28;20027;-86
2023/03/12 07:22:40;;;;;;;0.88;0.40;;;;;;;;;;4966210;28;20466;-87
2023/03/12 07:25:06;;;;;;;1.00;0.50;;;;;;;;;;4965409;28;20027;-86
2023/03/12 07:27:32;;;;;;;2.58;0.60;;;;;;;;;;4970097;28;20058;-84
2023/03/12 07:30:00;;;;;;;0.40;0.40;;;;;;;;;;4969073;28;20030;-86
2023/03/12 07:32:26;;;;;;;0.80;0.70;;;;;;;;;;4969437;28;20039;-85
2023/03/12 07:34:55;;;;;;;0.60;0.60;;;;;;;;;;4974901;28;20031;-85
2023/03/12 07:37:21;;;;;;;0.55;0.38;;;;;;;;;;4981628;28;20030;-85
2023/03/12 07:39:52;;;;;;;1.58;0.50;;;;;;;;;;4972448;28;20027;-85
2023/03/12 07:42:17;;;;;;;0.55;0.55;;;;;;;;;;4985509;28;20503;-84
2023/03/12 07:44:43;;;;;;;0.80;0.40;;;;;;;;;;4978290;28;20026;-85
2023/03/12 07:47:09;;;;;;;4.30;0.88;;;;;;;;;;4978623;28;20027;-87
2023/03/12 07:49:35;;;;;;;0.85;0.40;;;;;;;;;;4972884;28;20029;-88
2023/03/12 07:52:01;;;;;;;0.40;0.40;;;;;;;;;;4972975;28;20022;-89
2023/03/12 07:54:29;;;;;;;1.80;0.50;;;;;;;;;;4972508;28;20611;-85
2023/03/12 07:56:55;;;;;;;0.90;0.68;;;;;;;;;;4967398;28;20531;-86
2023/03/12 07:59:25;;;;;;;0.50;0.50;;;;;;;;;;4971901;28;20038;-86
2023/03/12 08:01:51;;;;;;;0.77;0.60;;;;;;;;;;4966827;28;20030;-85
2023/03/12 08:04:17;;;;;;;0.47;0.38;;;;;;;;;;4978814;28;20029;-85
2023/03/12 08:06:49;;;;;;;1.30;0.60;;;;;;;;;;4971916;28;20019;-85
2023/03/12 08:09:15;;;;;;;0.50;0.45;;;;;;;;;;4959714;28;20146;-85
2023/03/12 08:11:41;;;;;;;0.82;0.55;;;;;;;;;;4972037;28;20509;-84
2023/03/12 08:14:08;;;;;;;0.73;0.65;;;;;;;;;;4969367;28;20039;-84
2023/03/12 08:16:34;;;;;;;0.80;0.50;;;;;;;;;;4971388;28;20027;-85
2023/03/12 08:19:02;;;;;;;0.50;0.40;;;;;;;;;;4965571;28;20717;-76
2023/03/12 08:21:28;;;;;;;0.57;0.40;;;;;;;;;;4964043;28;20118;-83
2023/03/12 08:23:54;;;;;;;1.17;0.60;;;;;;;;;;4969894;28;20146;-83
2023/03/12 08:26:20;;;;;;;0.65;0.60;;;;;;;;;;4967414;28;20030;-83
2023/03/12 08:28:46;;;;;;;1.80;0.73;;;;;;;;;;4969736;28;20027;-83
2023/03/12 08:31:12;;;;;;;0.40;0.40;;;;;;;;;;4973243;28;20045;-82
2023/03/12 08:33:42;;;;;;;0.40;0.40;;;;;;;;;;4969787;28;20035;-83
2023/03/12 08:36:08;;;;;;;0.60;0.60;;;;;;;;;;4970233;28;20046;-83
2023/03/12 08:38:34;;;;;;;0.50;0.40;;;;;;;;;;4982906;28;20083;-85
2023/03/12 08:41:00;;;;;;;0.70;0.57;;;;;;;;;;4967503;28;20038;-84
2023/03/12 08:43:27;;;;;;;2.60;0.85;;;;;;;;;;4963998;28;20023;-82
2023/03/12 08:45:54;;;;;;;0.57;0.50;;;;;;;;;;4971468;28;20027;-84
2023/03/12 08:48:20;;;;;;;0.70;0.55;;;;;;;;;;4968329;28;20159;-84
2023/03/12 08:50:46;;;;;;;0.52;0.52;;;;;;;;;;4970039;28;20023;-82
2023/03/12 08:53:12;;;;;;;6.15;0.70;;;;;;;;;;4968524;28;20077;-76
2023/03/12 08:55:38;;;;;;;1.13;0.75;;;;;;;;;;4974066;28;20034;-78
2023/03/12 08:58:04;;;;;;;1.40;0.60;;;;;;;;;;4973216;28;20106;-83
2023/03/12 09:00:30;;;;;;;1.73;0.55;;;;;;;;;;4966280;28;20113;-82
2023/03/12 09:02:57;;;;;;;0.40;0.40;;;;;;;;;;4966554;28;20049;-83
2023/03/12 09:05:23;;;;;;;1.35;0.60;;;;;;;;;;4965348;28;20034;-81
2023/03/12 09:07:49;;;;;;;0.50;0.40;;;;;;;;;;4958324;28;20030;-82
2023/03/12 09:10:15;;;;;;;0.77;0.60;;;;;;;;;;4968491;28;20030;-80
2023/03/12 09:12:41;;;;;;;0.68;0.68;;;;;;;;;;4968380;28;20602;-88
2023/03/12 09:15:08;;;;;;;0.38;0.25;;;;;;;;;;4967445;28;20100;-80
2023/03/12 09:17:37;;;;;;;1.75;0.85;;;;;;;;;;4977918;28;20113;-80
2023/03/12 09:20:07;;;;;;;0.40;0.40;;;;;;;;;;4967603;28;20041;-82
2023/03/12 09:22:35;;;;;;;1.38;0.50;;;;;;;;;;4965832;28;20074;-81
2023/03/12 09:25:05;;;;;;;1.55;0.88;;;;;;;;;;4956055;28;20488;-81
2023/03/12 09:27:35;;;;;;;0.68;0.68;;;;;;;;;;4967425;28;20497;-80
2023/03/12 09:30:01;;;;;;;0.50;0.45;;;;;;;;;;4963932;28;20065;-80
2023/03/12 09:32:27;;;;;;;0.95;0.55;;;;;;;;;;4970665;28;20034;-82
2023/03/12 09:34:53;;;;;;;0.60;0.60;;;;;;;;;;4965844;28;20103;-77
2023/03/12 09:37:19;;;;;;;0.68;0.63;;;;;;;;;;4971241;28;20030;-83
2023/03/12 09:39:45;;;;;;;0.43;0.43;;;;;;;;;;4968507;28;20486;-82
2023/03/12 09:42:21;;;;;;;2.30;0.60;;;;;;;;;;4972397;28;20514;-84
2023/03/12 09:44:48;;;;;;;0.30;0.30;;;;;;;;;;4961319;28;20446;-81
2023/03/12 09:47:30;;;;;;;1.10;0.60;;;;;;;;;;4970021;28;20478;-83
2023/03/12 09:49:59;;;;;;;0.68;0.52;;;;;;;;;;4968159;28;20086;-80
2023/03/12 09:52:27;;;;;;;0.70;0.70;;;;;;;;;;4965400;28;20035;-80
2023/03/12 09:55:00;;;;;;;1.55;0.55;;;;;;;;;;4963517;28;20039;-80
2023/03/12 09:57:28;;;;;;;0.43;0.40;;;;;;;;;;4964013;28;20027;-82
2023/03/12 09:59:54;;;;;;;1.00;0.47;;;;;;;;;;4968892;28;20062;-81
2023/03/12 10:02:31;;;;;;;0.88;0.63;;;;;;;;;;4974713;28;20502;-86
2023/03/12 10:05:14;;;;;;;0.47;0.47;;;;;;;;;;4956298;28;20120;-80
2023/03/12 10:07:47;;;;;;;0.65;0.50;;;;;;;;;;4965205;28;20030;-79
2023/03/12 10:10:23;;;;;;;1.23;0.50;;;;;;;;;;4972268;28;20118;-78
2023/03/12 10:12:59;;;;;;;0.90;0.50;;;;;;;;;;4961863;28;20034;-78
2023/03/12 10:15:38;;;;;;;0.82;0.82;;;;;;;;;;4957971;28;20035;-77
2023/03/12 10:18:18;;;;;;;0.80;0.80;;;;;;;;;;4965056;28;20082;-77
2023/03/12 10:20:52;;;;;;;1.60;0.50;;;;;;;;;;4968838;28;20035;-77
2023/03/12 10:23:27;;;;;;;0.35;0.32;;;;;;;;;;4967221;28;20467;-77
2023/03/12 10:25:55;;;;;;;2.53;1.23;;;;;;;;;;4964569;28;20041;-77
2023/03/12 10:28:35;;;;;;;0.73;0.55;;;;;;;;;;4964526;28;20437;-78
2023/03/12 10:31:04;;;;;;;4.95;0.70;;;;;;;;;;4960634;28;20461;-78
2023/03/12 10:33:39;;;;;;;1.60;0.65;;;;;;;;;;4969081;28;20046;-79
2023/03/12 10:36:15;;;;;;;2.83;0.65;;;;;;;;;;4966030;28;20082;-80
2023/03/12 10:38:41;;;;;;;0.68;0.50;;;;;;;;;;4968700;28;20037;-77
2023/03/12 10:41:22;;;;;;;0.75;0.65;;;;;;;;;;4965891;28;20043;-81
2023/03/12 10:43:48;;;;;;;0.40;0.40;;;;;;;;;;4968778;28;20031;-78
2023/03/12 10:46:14;;;;;;;0.90;0.47;;;;;;;;;;4961942;28;20505;-79
2023/03/12 10:48:40;;;;;;;3.65;0.60;;;;;;;;;;4945789;28;20034;-81
2023/03/12 10:51:07;;;;;;;1.60;0.75;;;;;;;;;;4966411;28;20058;-81
2023/03/12 10:53:34;;;;;;;0.50;0.50;;;;;;;;;;4962807;28;20390;-76
2023/03/12 10:56:20;;;;;;;0.60;0.60;;;;;;;;;;4962799;28;20454;-78
2023/03/12 10:58:47;;;;;;;0.47;0.40;;;;;;;;;;4961769;28;20043;-76
2023/03/12 11:01:21;;;;;;;0.95;0.70;;;;;;;;;;4965391;28;20469;-76
2023/03/12 11:03:48;;;;;;;0.60;0.50;;;;;;;;;;4964612;28;20058;-78
2023/03/12 11:06:20;;;;;;;0.60;0.47;;;;;;;;;;4957864;28;20031;-77
2023/03/12 11:09:01;;;;;;;2.42;0.60;;;;;;;;;;4970723;28;20080;-78
2023/03/12 11:11:31;;;;;;;1.23;0.35;;;;;;;;;;4967215;28;20065;-78
2023/03/12 11:14:08;;;;;;;0.98;0.50;;;;;;;;;;4967449;28;20031;-78
2023/03/12 11:16:36;;;;;;;0.47;0.47;;;;;;;;;;4969892;28;20031;-81
2023/03/12 11:19:06;;;;;;;1.20;0.88;;;;;;;;;;4978635;28;20113;-77
2023/03/12 11:21:39;;;;;;;0.40;0.40;;;;;;;;;;4970942;28;20092;-79
2023/03/12 11:24:06;;;;;;;1.13;0.60;;;;;;;;;;4970380;28;20092;-81
2023/03/12 11:26:34;;;;;;;1.25;0.85;;;;;;;;;;4972043;28;20031;-77
2023/03/12 11:29:16;;;;;;;0.30;0.30;;;;;;;;;;4965690;28;20110;-78
2023/03/12 11:31:44;;;;;;;0.65;0.50;;;;;;;;;;4969530;28;20460;-75
2023/03/12 11:34:21;;;;;;;0.90;0.60;;;;;;;;;;4965318;28;20141;-75
2023/03/12 11:36:56;;;;;;;0.85;0.32;;;;;;;;;;4964228;28;20260;-76
2023/03/12 11:39:25;;;;;;;0.85;0.50;;;;;;;;;;4974073;28;20187;-76
2023/03/12 11:42:12;;;;;;;0.40;0.40;;;;;;;;;;4977261;28;20154;-76
2023/03/12 11:44:41;;;;;;;2.05;0.70;;;;;;;;;;4962476;28;20114;-74
2023/03/12 11:47:07;;;;;;;0.38;0.30;;;;;;;;;;4974792;28;20045;-73
2023/03/12 11:49:39;;;;;;;0.73;0.40;;;;;;;;;;4968836;28;20022;-75
2023/03/12 11:52:12;;;;;;;0.80;0.55;;;;;;;;;;4968870;28;20030;-75
2023/03/12 11:54:44;;;;;;;0.43;0.43;;;;;;;;;;4969035;28;20067;-75
2023/03/12 11:57:13;;;;;;;0.60;0.50;;;;;;;;;;4967708;28;20085;-74
2023/03/12 11:59:56;;;;;;;1.17;0.65;;;;;;;;;;4947613;28;20062;-75
2023/03/12 12:02:29;;;;;;;0.82;0.47;;;;;;;;;;4957935;28;20035;-74
2023/03/12 12:05:01;;;;;;;0.57;0.50;;;;;;;;;;4957983;28;20057;-76
2023/03/12 12:07:27;;;;;;;0.57;0.40;;;;;;;;;;4961932;28;20035;-75
2023/03/12 12:10:01;;;;;;;0.30;0.30;;;;;;;;;;4969600;28;20027;-75
2023/03/12 12:12:48;;;;;;;1.08;0.47;;;;;;;;;;4961924;28;20178;-75
2023/03/12 12:15:18;;;;;;;0.38;0.30;;;;;;;;;;4957999;28;20134;-78
2023/03/12 12:17:54;;;;;;;0.50;0.43;;;;;;;;;;4959673;28;20299;-76
2023/03/12 12:20:28;;;;;;;2.53;0.52;;;;;;;;;;4954415;28;20682;-77
2023/03/12 12:23:04;;;;;;;2.47;0.68;;;;;;;;;;4953823;28;20043;-76
2023/03/12 12:25:38;;;;;;;0.32;0.30;;;;;;;;;;4952414;28;20058;-76
2023/03/12 12:28:16;;;;;;;1.77;0.70;;;;;;;;;;4963107;28;20026;-75
2023/03/12 12:31:02;;;;;;;1.02;0.50;;;;;;;;;;4959247;28;20109;-75
2023/03/12 12:33:44;;;;;;;1.42;0.70;;;;;;;;;;4952501;28;20478;-74
2023/03/12 12:36:11;;;;;;;2.05;0.65;;;;;;;;;;4963685;28;20377;-75
2023/03/12 12:38:49;;;;;;;1.50;0.60;;;;;;;;;;4960781;28;20028;-75
2023/03/12 12:41:17;;;;;;;0.80;0.60;;;;;;;;;;4960533;28;20046;-75
2023/03/12 12:43:46;;;;;;;2.17;0.90;;;;;;;;;;4966343;28;20027;-75
2023/03/12 12:46:15;;;;;;;0.45;0.45;;;;;;;;;;4953345;28;20867;-80
2023/03/12 12:48:48;;;;;;;1.88;0.80;;;;;;;;;;4956271;28;20039;-75
2023/03/12 12:51:15;;;;;;;1.85;0.75;;;;;;;;;;4971195;28;20676;-75
2023/03/12 12:53:47;;;;;;;1.40;0.70;;;;;;;;;;4961949;28;20038;-74
2023/03/12 12:56:32;;;;;;;4.05;0.60;;;;;;;;;;4962309;28;20564;-78
2023/03/12 12:59:05;;;;;;;1.63;0.95;;;;;;;;;;4962893;28;20085;-79
2023/03/12 13:01:33;;;;;;;1.13;0.65;;;;;;;;;;4964795;28;20045;-77
2023/03/12 13:04:05;;;;;;;0.70;0.50;;;;;;;;;;4964089;28;20037;-77
2023/03/12 13:06:51;;;;;;;1.10;0.80;;;;;;;;;;4954254;28;20039;-81
2023/03/12 13:09:22;;;;;;;1.50;0.70;;;;;;;;;;4951391;28;20039;-77
2023/03/12 13:11:50;;;;;;;4.55;0.63;;;;;;;;;;4958290;28;20114;-79
2023/03/12 13:14:20;;;;;;;2.10;0.60;;;;;;;;;;4956460;28;20034;-76
2023/03/12 13:16:47;;;;;;;1.70;0.80;;;;;;;;;;4956532;28;20584;-76
2023/03/12 13:19:16;;;;;;;0.70;0.65;;;;;;;;;;4952617;28;20492;-79
2023/03/12 13:22:04;;;;;;;2.30;0.85;;;;;;;;;;4955938;28;20089;-75
2023/03/12 13:24:35;;;;;;;2.53;0.90;;;;;;;;;;4959732;28;20082;-73
2023/03/12 13:27:12;;;;;;;1.38;0.65;;;;;;;;;;4961968;28;20030;-75
2023/03/12 13:29:40;;;;;;;1.83;0.75;;;;;;;;;;4959508;28;20565;-75
2023/03/12 13:32:09;;;;;;;3.00;1.25;;;;;;;;;;4959696;28;20027;-75
2023/03/12 13:34:59;;;;;;;3.35;1.15;;;;;;;;;;4957224;28;20036;-74
2023/03/12 13:37:43;;;;;;;2.38;0.80;;;;;;;;;;4961457;28;20097;-76
2023/03/12 13:40:45;;;;;;;3.50;1.35;;;;;;;;;;4955882;28;20037;-74
2023/03/12 13:43:13;;;;;;;3.03;1.00;;;;;;;;;;4891091;29;20125;-75
2023/03/12 13:45:58;;;;;;;4.38;1.25;;;;;;;;;;4956385;28;20093;-76
2023/03/12 13:48:24;;;;;;;4.30;1.23;;;;;;;;;;4962571;28;20042;-75
2023/03/12 13:50:52;;;;;;;5.15;1.42;;;;;;;;;;4964669;28;20485;-76
2023/03/12 13:53:27;;;;;;;2.75;0.80;;;;;;;;;;4962682;28;20058;-78
2023/03/12 13:56:04;;;;;;;2.38;0.60;;;;;;;;;;4963331;28;20030;-78
2023/03/12 13:58:30;;;;;;;3.40;0.95;;;;;;;;;;4964216;28;20057;-76
2023/03/12 14:01:01;;;;;;;1.75;0.90;;;;;;;;;;4961101;28;20039;-74
2023/03/12 14:03:48;;;;;;;1.27;0.60;;;;;;;;;;4959032;28;20117;-76
2023/03/12 14:06:16;;;;;;;1.83;0.75;;;;;;;;;;4959342;28;20041;-79
2023/03/12 14:08:57;;;;;;;0.93;0.82;;;;;;;;;;4963933;28;20088;-75
2023/03/12 14:11:48;;;;;;;1.50;0.93;;;;;;;;;;4971950;28;20026;-74
2023/03/12 14:14:23;;;;;;;2.40;0.73;;;;;;;;;;4958738;28;20031;-72
2023/03/12 14:16:51;;;;;;;1.42;0.93;;;;;;;;;;4964429;28;20034;-76
2023/03/12 14:19:20;;;;;;;3.10;1.10;;;;;;;;;;4967605;28;20744;-76
2023/03/12 14:21:47;;;;;;;0.75;0.68;;;;;;;;;;4962919;28;20030;-75
2023/03/12 14:24:33;;;;;;;2.78;0.70;;;;;;;;;;4967366;28;20026;-75
2023/03/12 14:27:00;;;;;;;0.93;0.73;;;;;;;;;;4962941;28;20468;-74
2023/03/12 14:29:29;;;;;;;1.15;0.65;;;;;;;;;;4954577;28;20134;-74
2023/03/12 14:31:56;;;;;;;0.70;0.65;;;;;;;;;;4954609;28;20031;-82
2023/03/12 14:34:25;;;;;;;2.25;1.00;;;;;;;;;;4964493;28;20035;-75
2023/03/12 14:37:00;;;;;;;0.73;0.70;;;;;;;;;;4961005;28;20039;-73
2023/03/12 14:39:28;;;;;;;1.65;0.85;;;;;;;;;;4950404;28;20738;-72
2023/03/12 14:41:58;;;;;;;1.83;0.98;;;;;;;;;;4962884;28;20423;-74
2023/03/12 14:44:25;;;;;;;2.05;1.13;;;;;;;;;;4965684;28;20030;-74
2023/03/12 14:46:55;;;;;;;2.90;1.20;;;;;;;;;;4965834;28;20030;-73
2023/03/12 14:49:21;;;;;;;0.88;0.77;;;;;;;;;;4965976;28;20142;-72
2023/03/12 14:51:48;;;;;;;3.88;0.90;;;;;;;;;;4970747;28;20039;-74
2023/03/12 14:54:22;;;;;;;1.05;0.68;;;;;;;;;;4964742;28;20031;-74